sensor_id;sensor_type;location;lat;lon;timestamp;P1;durP1;ratioP1;P2;durP2;ratioP2
5684;SDS011;2865;53.114;9.130;2023-04-09T00:01:01;52.97;;;25.43;;
5684;SDS011;2865;53.114;9.130;2023-04-09T00:03:25;49.10;;;25.87;;
5684;SDS011;2865;53.114;9.130;2023-04-09T00:05:50;54.20;;;29.13;;
5684;SDS011;2865;53.114;9.130;2023-04-09T00:08:16;59.43;;;28.90;;
5684;SDS011;2865;53.114;9.130;2023-04-09T00:10:41;52.83;;;27.60;;
5684;SDS011;2865;53.114;9.130;2023-04-09T00:13:07;52.87;;;26.93;;
5684;SDS011;2865;53.114;9.130;2023-04-09T00:15:32;63.07;;;29.10;;
5684;SDS011;2865;53.114;9.130;2023-04-09T00:17:58;58.00;;;28.83;;
5684;SDS011;2865;53.114;9.130;2023-04-09T00:20:23;58.57;;;28.10;;
5684;SDS011;2865;53.114;9.130;2023-04-09T00:22:48;49.33;;;27.93;;
5684;SDS011;2865;53.114;9.130;2023-04-09T00:25:14;58.53;;;29.60;;
5684;SDS011;2865;53.114;9.130;2023-04-09T00:27:39;56.97;;;28.90;;
5684;SDS011;2865;53.114;9.130;2023-04-09T00:30:05;56.13;;;28.97;;
5684;SDS011;2865;53.114;9.130;2023-04-09T00:32:32;64.37;;;30.20;;
5684;SDS011;2865;53.114;9.130;2023-04-09T00:34:58;56.60;;;30.37;;
5684;SDS011;2865;53.114;9.130;2023-04-09T00:37:23;58.10;;;29.43;;
5684;SDS011;2865;53.114;9.130;2023-04-09T00:39:49;64.23;;;29.83;;
5684;SDS011;2865;53.114;9.130;2023-04-09T00:42:14;62.07;;;30.50;;
5684;SDS011;2865;53.114;9.130;2023-04-09T00:44:40;74.03;;;32.27;;
5684;SDS011;2865;53.114;9.130;2023-04-09T00:47:05;62.97;;;30.57;;
5684;SDS011;2865;53.114;9.130;2023-04-09T00:49:31;67.53;;;31.80;;
5684;SDS011;2865;53.114;9.130;2023-04-09T00:51:56;61.87;;;31.60;;
5684;SDS011;2865;53.114;9.130;2023-04-09T00:54:22;63.60;;;30.90;;
5684;SDS011;2865;53.114;9.130;2023-04-09T00:56:47;60.40;;;30.10;;
5684;SDS011;2865;53.114;9.130;2023-04-09T00:59:12;55.77;;;31.17;;
5684;SDS011;2865;53.114;9.130;2023-04-09T01:01:38;72.77;;;31.03;;
5684;SDS011;2865;53.114;9.130;2023-04-09T01:04:03;59.17;;;31.47;;
5684;SDS011;2865;53.114;9.130;2023-04-09T01:06:34;74.87;;;34.23;;
5684;SDS011;2865;53.114;9.130;2023-04-09T01:09:18;62.57;;;30.67;;
5684;SDS011;2865;53.114;9.130;2023-04-09T01:11:57;59.37;;;30.57;;
5684;SDS011;2865;53.114;9.130;2023-04-09T01:14:23;56.63;;;29.30;;
5684;SDS011;2865;53.114;9.130;2023-04-09T01:16:46;61.90;;;30.40;;
5684;SDS011;2865;53.114;9.130;2023-04-09T01:20:28;61.67;;;31.83;;
5684;SDS011;2865;53.114;9.130;2023-04-09T01:21:59;74.83;;;31.93;;
5684;SDS011;2865;53.114;9.130;2023-04-09T01:24:35;60.87;;;32.10;;
5684;SDS011;2865;53.114;9.130;2023-04-09T01:27:02;61.00;;;30.70;;
5684;SDS011;2865;53.114;9.130;2023-04-09T01:29:26;58.10;;;33.07;;
5684;SDS011;2865;53.114;9.130;2023-04-09T01:31:51;67.07;;;32.50;;
5684;SDS011;2865;53.114;9.130;2023-04-09T01:34:17;57.93;;;30.50;;
5684;SDS011;2865;53.114;9.130;2023-04-09T01:36:44;60.93;;;30.10;;
5684;SDS011;2865;53.114;9.130;2023-04-09T01:39:08;72.47;;;32.83;;
5684;SDS011;2865;53.114;9.130;2023-04-09T01:41:33;56.53;;;31.43;;
5684;SDS011;2865;53.114;9.130;2023-04-09T01:43:59;72.67;;;34.10;;
5684;SDS011;2865;53.114;9.130;2023-04-09T01:46:24;61.07;;;32.00;;
5684;SDS011;2865;53.114;9.130;2023-04-09T01:48:49;69.03;;;34.30;;
5684;SDS011;2865;53.114;9.130;2023-04-09T01:51:15;68.90;;;33.30;;
5684;SDS011;2865;53.114;9.130;2023-04-09T01:53:40;60.77;;;32.87;;
5684;SDS011;2865;53.114;9.130;2023-04-09T01:56:06;63.20;;;30.67;;
5684;SDS011;2865;53.114;9.130;2023-04-09T01:58:31;66.73;;;30.53;;
5684;SDS011;2865;53.114;9.130;2023-04-09T02:00:59;64.33;;;31.97;;
5684;SDS011;2865;53.114;9.130;2023-04-09T02:03:25;64.93;;;31.80;;
5684;SDS011;2865;53.114;9.130;2023-04-09T02:05:55;65.10;;;31.47;;
5684;SDS011;2865;53.114;9.130;2023-04-09T02:08:24;60.67;;;31.00;;
5684;SDS011;2865;53.114;9.130;2023-04-09T02:10:50;63.77;;;31.53;;
5684;SDS011;2865;53.114;9.130;2023-04-09T02:13:16;65.80;;;32.23;;
5684;SDS011;2865;53.114;9.130;2023-04-09T02:15:42;60.90;;;34.00;;
5684;SDS011;2865;53.114;9.130;2023-04-09T02:18:19;64.73;;;30.40;;
5684;SDS011;2865;53.114;9.130;2023-04-09T02:20:33;58.20;;;30.67;;
5684;SDS011;2865;53.114;9.130;2023-04-09T02:22:58;66.20;;;32.20;;
5684;SDS011;2865;53.114;9.130;2023-04-09T02:25:23;65.10;;;30.27;;
5684;SDS011;2865;53.114;9.130;2023-04-09T02:27:49;62.40;;;28.90;;
5684;SDS011;2865;53.114;9.130;2023-04-09T02:30:14;62.60;;;33.03;;
5684;SDS011;2865;53.114;9.130;2023-04-09T02:32:40;61.40;;;32.10;;
5684;SDS011;2865;53.114;9.130;2023-04-09T02:35:05;64.63;;;31.27;;
5684;SDS011;2865;53.114;9.130;2023-04-09T02:37:31;63.90;;;30.13;;
5684;SDS011;2865;53.114;9.130;2023-04-09T02:39:57;61.93;;;30.87;;
5684;SDS011;2865;53.114;9.130;2023-04-09T02:42:22;62.90;;;30.93;;
5684;SDS011;2865;53.114;9.130;2023-04-09T02:44:48;60.73;;;31.63;;
5684;SDS011;2865;53.114;9.130;2023-04-09T02:47:13;62.57;;;32.47;;
5684;SDS011;2865;53.114;9.130;2023-04-09T02:49:39;58.13;;;31.07;;
5684;SDS011;2865;53.114;9.130;2023-04-09T02:52:04;50.90;;;28.67;;
5684;SDS011;2865;53.114;9.130;2023-04-09T02:54:29;63.57;;;32.03;;
5684;SDS011;2865;53.114;9.130;2023-04-09T02:56:55;62.73;;;31.37;;
5684;SDS011;2865;53.114;9.130;2023-04-09T02:59:20;61.67;;;31.80;;
5684;SDS011;2865;53.114;9.130;2023-04-09T03:01:45;59.07;;;31.50;;
5684;SDS011;2865;53.114;9.130;2023-04-09T03:04:11;61.73;;;31.50;;
5684;SDS011;2865;53.114;9.130;2023-04-09T03:06:36;74.87;;;33.60;;
5684;SDS011;2865;53.114;9.130;2023-04-09T03:09:02;68.43;;;30.93;;
5684;SDS011;2865;53.114;9.130;2023-04-09T03:11:27;65.20;;;31.83;;
5684;SDS011;2865;53.114;9.130;2023-04-09T03:13:53;64.83;;;35.20;;
5684;SDS011;2865;53.114;9.130;2023-04-09T03:16:18;64.03;;;31.47;;
5684;SDS011;2865;53.114;9.130;2023-04-09T03:18:43;62.50;;;31.63;;
5684;SDS011;2865;53.114;9.130;2023-04-09T03:21:09;69.97;;;31.13;;
5684;SDS011;2865;53.114;9.130;2023-04-09T03:23:34;66.03;;;31.97;;
5684;SDS011;2865;53.114;9.130;2023-04-09T03:26:00;64.83;;;32.50;;
5684;SDS011;2865;53.114;9.130;2023-04-09T03:28:25;74.30;;;33.00;;
5684;SDS011;2865;53.114;9.130;2023-04-09T03:30:50;72.47;;;35.07;;
5684;SDS011;2865;53.114;9.130;2023-04-09T03:33:16;75.50;;;33.40;;
5684;SDS011;2865;53.114;9.130;2023-04-09T03:35:41;62.53;;;33.20;;
5684;SDS011;2865;53.114;9.130;2023-04-09T03:38:08;73.07;;;33.87;;
5684;SDS011;2865;53.114;9.130;2023-04-09T03:40:33;66.63;;;33.13;;
5684;SDS011;2865;53.114;9.130;2023-04-09T03:42:59;62.63;;;32.23;;
5684;SDS011;2865;53.114;9.130;2023-04-09T03:45:24;79.40;;;33.80;;
5684;SDS011;2865;53.114;9.130;2023-04-09T03:47:49;84.37;;;35.10;;
5684;SDS011;2865;53.114;9.130;2023-04-09T03:50:15;77.97;;;36.33;;
5684;SDS011;2865;53.114;9.130;2023-04-09T03:52:40;80.17;;;35.47;;
5684;SDS011;2865;53.114;9.130;2023-04-09T03:55:06;87.50;;;35.63;;
5684;SDS011;2865;53.114;9.130;2023-04-09T03:57:33;74.57;;;35.47;;
5684;SDS011;2865;53.114;9.130;2023-04-09T03:59:58;71.63;;;35.17;;
5684;SDS011;2865;53.114;9.130;2023-04-09T04:02:24;80.00;;;34.57;;
5684;SDS011;2865;53.114;9.130;2023-04-09T04:04:49;77.27;;;36.70;;
5684;SDS011;2865;53.114;9.130;2023-04-09T04:07:14;80.43;;;38.03;;
5684;SDS011;2865;53.114;9.130;2023-04-09T04:09:40;76.73;;;37.87;;
5684;SDS011;2865;53.114;9.130;2023-04-09T04:12:05;70.93;;;36.60;;
5684;SDS011;2865;53.114;9.130;2023-04-09T04:14:31;82.93;;;36.27;;
5684;SDS011;2865;53.114;9.130;2023-04-09T04:16:56;90.47;;;37.50;;
5684;SDS011;2865;53.114;9.130;2023-04-09T04:19:22;70.80;;;35.10;;
5684;SDS011;2865;53.114;9.130;2023-04-09T04:21:47;82.37;;;37.23;;
5684;SDS011;2865;53.114;9.130;2023-04-09T04:24:12;80.23;;;38.17;;
5684;SDS011;2865;53.114;9.130;2023-04-09T04:26:38;88.33;;;38.60;;
5684;SDS011;2865;53.114;9.130;2023-04-09T04:29:03;76.50;;;35.83;;
5684;SDS011;2865;53.114;9.130;2023-04-09T04:31:29;76.53;;;36.33;;
5684;SDS011;2865;53.114;9.130;2023-04-09T04:33:54;84.13;;;36.73;;
5684;SDS011;2865;53.114;9.130;2023-04-09T04:36:19;82.00;;;37.63;;
5684;SDS011;2865;53.114;9.130;2023-04-09T04:38:45;78.93;;;35.27;;
5684;SDS011;2865;53.114;9.130;2023-04-09T04:41:10;81.73;;;36.33;;
5684;SDS011;2865;53.114;9.130;2023-04-09T04:43:36;76.33;;;36.00;;
5684;SDS011;2865;53.114;9.130;2023-04-09T04:46:02;72.93;;;35.03;;
5684;SDS011;2865;53.114;9.130;2023-04-09T04:48:27;69.43;;;35.63;;
5684;SDS011;2865;53.114;9.130;2023-04-09T04:50:55;72.63;;;34.73;;
5684;SDS011;2865;53.114;9.130;2023-04-09T04:53:20;83.37;;;34.50;;
5684;SDS011;2865;53.114;9.130;2023-04-09T04:55:45;78.03;;;35.57;;
5684;SDS011;2865;53.114;9.130;2023-04-09T04:58:11;78.93;;;35.10;;
5684;SDS011;2865;53.114;9.130;2023-04-09T05:00:36;74.83;;;33.43;;
5684;SDS011;2865;53.114;9.130;2023-04-09T05:03:01;73.63;;;33.30;;
5684;SDS011;2865;53.114;9.130;2023-04-09T05:05:27;70.73;;;33.60;;
5684;SDS011;2865;53.114;9.130;2023-04-09T05:07:52;70.50;;;33.37;;
5684;SDS011;2865;53.114;9.130;2023-04-09T05:10:17;65.53;;;33.80;;
5684;SDS011;2865;53.114;9.130;2023-04-09T05:12:43;70.27;;;34.40;;
5684;SDS011;2865;53.114;9.130;2023-04-09T05:15:08;74.10;;;35.70;;
5684;SDS011;2865;53.114;9.130;2023-04-09T05:17:34;68.80;;;31.80;;
5684;SDS011;2865;53.114;9.130;2023-04-09T05:19:59;71.37;;;31.93;;
5684;SDS011;2865;53.114;9.130;2023-04-09T05:22:24;86.93;;;35.50;;
5684;SDS011;2865;53.114;9.130;2023-04-09T05:24:50;70.77;;;36.63;;
5684;SDS011;2865;53.114;9.130;2023-04-09T05:27:15;64.83;;;32.40;;
5684;SDS011;2865;53.114;9.130;2023-04-09T05:29:40;69.47;;;35.47;;
5684;SDS011;2865;53.114;9.130;2023-04-09T05:32:06;65.80;;;33.50;;
5684;SDS011;2865;53.114;9.130;2023-04-09T05:34:32;60.47;;;31.43;;
5684;SDS011;2865;53.114;9.130;2023-04-09T05:36:57;56.07;;;28.90;;
5684;SDS011;2865;53.114;9.130;2023-04-09T05:39:23;62.50;;;32.40;;
5684;SDS011;2865;53.114;9.130;2023-04-09T05:41:48;64.37;;;30.53;;
5684;SDS011;2865;53.114;9.130;2023-04-09T05:44:13;61.80;;;30.20;;
5684;SDS011;2865;53.114;9.130;2023-04-09T05:46:39;57.60;;;29.53;;
5684;SDS011;2865;53.114;9.130;2023-04-09T05:49:04;55.47;;;28.17;;
5684;SDS011;2865;53.114;9.130;2023-04-09T05:51:29;59.80;;;31.17;;
5684;SDS011;2865;53.114;9.130;2023-04-09T05:53:55;62.07;;;29.90;;
5684;SDS011;2865;53.114;9.130;2023-04-09T05:56:20;52.47;;;27.93;;
5684;SDS011;2865;53.114;9.130;2023-04-09T05:58:47;44.00;;;26.00;;
5684;SDS011;2865;53.114;9.130;2023-04-09T06:01:12;55.83;;;26.93;;
5684;SDS011;2865;53.114;9.130;2023-04-09T06:03:37;53.27;;;28.60;;
5684;SDS011;2865;53.114;9.130;2023-04-09T06:06:03;48.00;;;26.27;;
5684;SDS011;2865;53.114;9.130;2023-04-09T06:08:28;51.43;;;28.60;;
5684;SDS011;2865;53.114;9.130;2023-04-09T06:10:54;48.37;;;25.07;;
5684;SDS011;2865;53.114;9.130;2023-04-09T06:13:19;48.97;;;26.27;;
5684;SDS011;2865;53.114;9.130;2023-04-09T06:15:45;44.70;;;26.50;;
5684;SDS011;2865;53.114;9.130;2023-04-09T06:18:10;39.40;;;24.97;;
5684;SDS011;2865;53.114;9.130;2023-04-09T06:20:35;45.73;;;23.97;;
5684;SDS011;2865;53.114;9.130;2023-04-09T06:23:01;54.00;;;25.10;;
5684;SDS011;2865;53.114;9.130;2023-04-09T06:25:26;44.57;;;23.20;;
5684;SDS011;2865;53.114;9.130;2023-04-09T06:27:52;42.63;;;23.70;;
5684;SDS011;2865;53.114;9.130;2023-04-09T06:30:17;40.80;;;23.60;;
5684;SDS011;2865;53.114;9.130;2023-04-09T06:32:42;45.60;;;24.90;;
5684;SDS011;2865;53.114;9.130;2023-04-09T06:35:08;36.27;;;22.70;;
5684;SDS011;2865;53.114;9.130;2023-04-09T06:37:33;39.30;;;21.27;;
5684;SDS011;2865;53.114;9.130;2023-04-09T06:39:59;30.77;;;19.47;;
5684;SDS011;2865;53.114;9.130;2023-04-09T06:42:24;38.80;;;20.23;;
5684;SDS011;2865;53.114;9.130;2023-04-09T06:44:50;33.73;;;18.83;;
5684;SDS011;2865;53.114;9.130;2023-04-09T06:47:15;31.57;;;19.53;;
5684;SDS011;2865;53.114;9.130;2023-04-09T06:49:41;36.53;;;19.47;;
5684;SDS011;2865;53.114;9.130;2023-04-09T06:52:06;26.20;;;17.30;;
5684;SDS011;2865;53.114;9.130;2023-04-09T06:54:32;25.83;;;16.07;;
5684;SDS011;2865;53.114;9.130;2023-04-09T06:56:57;23.90;;;16.10;;
5684;SDS011;2865;53.114;9.130;2023-04-09T06:59:22;26.60;;;16.70;;
5684;SDS011;2865;53.114;9.130;2023-04-09T07:01:48;25.73;;;16.80;;
5684;SDS011;2865;53.114;9.130;2023-04-09T07:04:13;30.23;;;17.40;;
5684;SDS011;2865;53.114;9.130;2023-04-09T07:06:38;25.80;;;16.93;;
5684;SDS011;2865;53.114;9.130;2023-04-09T07:09:04;24.83;;;15.87;;
5684;SDS011;2865;53.114;9.130;2023-04-09T07:11:29;24.60;;;16.10;;
5684;SDS011;2865;53.114;9.130;2023-04-09T07:13:55;40.63;;;21.23;;
5684;SDS011;2865;53.114;9.130;2023-04-09T07:16:20;27.83;;;16.57;;
5684;SDS011;2865;53.114;9.130;2023-04-09T07:18:45;31.93;;;17.67;;
5684;SDS011;2865;53.114;9.130;2023-04-09T07:21:11;36.70;;;19.17;;
5684;SDS011;2865;53.114;9.130;2023-04-09T07:23:36;31.00;;;18.10;;
5684;SDS011;2865;53.114;9.130;2023-04-09T07:26:03;31.60;;;17.60;;
5684;SDS011;2865;53.114;9.130;2023-04-09T07:28:28;23.10;;;14.90;;
5684;SDS011;2865;53.114;9.130;2023-04-09T07:30:53;19.97;;;13.73;;
5684;SDS011;2865;53.114;9.130;2023-04-09T07:33:18;21.83;;;15.23;;
5684;SDS011;2865;53.114;9.130;2023-04-09T07:35:44;24.93;;;14.47;;
5684;SDS011;2865;53.114;9.130;2023-04-09T07:38:09;23.27;;;15.17;;
5684;SDS011;2865;53.114;9.130;2023-04-09T07:40:35;24.33;;;15.33;;
5684;SDS011;2865;53.114;9.130;2023-04-09T07:43:00;31.23;;;16.80;;
5684;SDS011;2865;53.114;9.130;2023-04-09T07:45:25;22.17;;;14.43;;
5684;SDS011;2865;53.114;9.130;2023-04-09T07:47:51;27.10;;;15.13;;
5684;SDS011;2865;53.114;9.130;2023-04-09T07:50:16;25.53;;;15.50;;
5684;SDS011;2865;53.114;9.130;2023-04-09T07:52:41;25.83;;;16.40;;
5684;SDS011;2865;53.114;9.130;2023-04-09T07:55:07;24.03;;;14.83;;
5684;SDS011;2865;53.114;9.130;2023-04-09T07:57:32;26.80;;;16.20;;
5684;SDS011;2865;53.114;9.130;2023-04-09T07:59:58;24.17;;;16.50;;
5684;SDS011;2865;53.114;9.130;2023-04-09T08:02:23;23.90;;;16.07;;
5684;SDS011;2865;53.114;9.130;2023-04-09T08:04:49;35.17;;;19.20;;
5684;SDS011;2865;53.114;9.130;2023-04-09T08:07:14;31.17;;;18.43;;
5684;SDS011;2865;53.114;9.130;2023-04-09T08:09:39;30.33;;;17.10;;
5684;SDS011;2865;53.114;9.130;2023-04-09T08:14:48;27.73;;;17.60;;
5684;SDS011;2865;53.114;9.130;2023-04-09T08:17:13;28.97;;;16.33;;
5684;SDS011;2865;53.114;9.130;2023-04-09T08:19:38;24.63;;;15.70;;
5684;SDS011;2865;53.114;9.130;2023-04-09T08:22:04;25.20;;;15.23;;
5684;SDS011;2865;53.114;9.130;2023-04-09T08:24:29;20.67;;;14.33;;
5684;SDS011;2865;53.114;9.130;2023-04-09T08:26:56;24.30;;;15.27;;
5684;SDS011;2865;53.114;9.130;2023-04-09T08:29:21;19.53;;;13.07;;
5684;SDS011;2865;53.114;9.130;2023-04-09T08:31:46;21.20;;;14.30;;
5684;SDS011;2865;53.114;9.130;2023-04-09T08:34:11;20.90;;;14.60;;
5684;SDS011;2865;53.114;9.130;2023-04-09T08:36:37;21.30;;;14.57;;
5684;SDS011;2865;53.114;9.130;2023-04-09T08:39:02;21.23;;;13.23;;
5684;SDS011;2865;53.114;9.130;2023-04-09T08:41:29;20.60;;;13.97;;
5684;SDS011;2865;53.114;9.130;2023-04-09T08:43:55;19.03;;;13.63;;
5684;SDS011;2865;53.114;9.130;2023-04-09T08:46:20;20.03;;;13.90;;
5684;SDS011;2865;53.114;9.130;2023-04-09T08:48:46;17.47;;;13.10;;
5684;SDS011;2865;53.114;9.130;2023-04-09T08:51:18;21.37;;;13.80;;
5684;SDS011;2865;53.114;9.130;2023-04-09T08:53:45;18.53;;;12.63;;
5684;SDS011;2865;53.114;9.130;2023-04-09T08:56:09;22.90;;;14.20;;
5684;SDS011;2865;53.114;9.130;2023-04-09T08:58:35;20.77;;;14.30;;
5684;SDS011;2865;53.114;9.130;2023-04-09T09:01:00;21.00;;;14.60;;
5684;SDS011;2865;53.114;9.130;2023-04-09T09:03:26;19.37;;;14.23;;
5684;SDS011;2865;53.114;9.130;2023-04-09T09:05:51;21.77;;;14.60;;
5684;SDS011;2865;53.114;9.130;2023-04-09T09:08:22;19.93;;;14.50;;
5684;SDS011;2865;53.114;9.130;2023-04-09T09:10:47;18.47;;;12.90;;
5684;SDS011;2865;53.114;9.130;2023-04-09T09:13:16;21.27;;;13.17;;
5684;SDS011;2865;53.114;9.130;2023-04-09T09:15:45;16.60;;;11.57;;
5684;SDS011;2865;53.114;9.130;2023-04-09T09:18:10;18.27;;;12.90;;
5684;SDS011;2865;53.114;9.130;2023-04-09T09:20:35;20.77;;;13.93;;
5684;SDS011;2865;53.114;9.130;2023-04-09T09:23:01;18.87;;;12.17;;
5684;SDS011;2865;53.114;9.130;2023-04-09T09:25:26;20.50;;;13.43;;
5684;SDS011;2865;53.114;9.130;2023-04-09T09:27:52;15.37;;;11.30;;
5684;SDS011;2865;53.114;9.130;2023-04-09T09:30:21;19.30;;;12.90;;
5684;SDS011;2865;53.114;9.130;2023-04-09T09:32:50;17.73;;;12.13;;
5684;SDS011;2865;53.114;9.130;2023-04-09T09:35:19;17.67;;;12.23;;
5684;SDS011;2865;53.114;9.130;2023-04-09T09:37:44;17.20;;;12.40;;
5684;SDS011;2865;53.114;9.130;2023-04-09T09:40:10;18.73;;;12.90;;
5684;SDS011;2865;53.114;9.130;2023-04-09T09:42:38;15.77;;;11.50;;
5684;SDS011;2865;53.114;9.130;2023-04-09T09:45:02;15.37;;;12.10;;
5684;SDS011;2865;53.114;9.130;2023-04-09T09:47:28;18.20;;;12.83;;
5684;SDS011;2865;53.114;9.130;2023-04-09T09:49:54;16.20;;;12.03;;
5684;SDS011;2865;53.114;9.130;2023-04-09T09:52:21;17.33;;;12.37;;
5684;SDS011;2865;53.114;9.130;2023-04-09T09:54:46;16.73;;;11.80;;
5684;SDS011;2865;53.114;9.130;2023-04-09T09:57:10;16.23;;;12.00;;
5684;SDS011;2865;53.114;9.130;2023-04-09T09:59:37;15.83;;;13.00;;
5684;SDS011;2865;53.114;9.130;2023-04-09T10:02:03;16.43;;;12.37;;
5684;SDS011;2865;53.114;9.130;2023-04-09T10:04:28;16.03;;;11.13;;
5684;SDS011;2865;53.114;9.130;2023-04-09T10:06:54;19.83;;;11.30;;
5684;SDS011;2865;53.114;9.130;2023-04-09T10:09:19;14.93;;;11.40;;
5684;SDS011;2865;53.114;9.130;2023-04-09T10:11:44;14.50;;;10.67;;
5684;SDS011;2865;53.114;9.130;2023-04-09T10:14:10;17.80;;;12.03;;
5684;SDS011;2865;53.114;9.130;2023-04-09T10:16:35;17.20;;;12.33;;
5684;SDS011;2865;53.114;9.130;2023-04-09T10:19:01;16.10;;;10.87;;
5684;SDS011;2865;53.114;9.130;2023-04-09T10:21:33;17.17;;;12.33;;
5684;SDS011;2865;53.114;9.130;2023-04-09T10:23:57;14.03;;;10.70;;
5684;SDS011;2865;53.114;9.130;2023-04-09T10:26:23;17.00;;;11.60;;
5684;SDS011;2865;53.114;9.130;2023-04-09T10:29:02;15.30;;;11.80;;
5684;SDS011;2865;53.114;9.130;2023-04-09T10:31:13;15.37;;;11.07;;
5684;SDS011;2865;53.114;9.130;2023-04-09T10:33:38;20.40;;;12.77;;
5684;SDS011;2865;53.114;9.130;2023-04-09T10:36:06;16.17;;;11.50;;
5684;SDS011;2865;53.114;9.130;2023-04-09T10:38:34;14.53;;;11.20;;
5684;SDS011;2865;53.114;9.130;2023-04-09T10:41:05;16.57;;;10.90;;
5684;SDS011;2865;53.114;9.130;2023-04-09T10:43:25;13.67;;;11.00;;
5684;SDS011;2865;53.114;9.130;2023-04-09T10:45:50;12.30;;;10.90;;
5684;SDS011;2865;53.114;9.130;2023-04-09T10:48:16;14.30;;;10.40;;
5684;SDS011;2865;53.114;9.130;2023-04-09T10:50:42;12.80;;;10.37;;
5684;SDS011;2865;53.114;9.130;2023-04-09T10:53:07;15.27;;;10.27;;
5684;SDS011;2865;53.114;9.130;2023-04-09T10:55:35;13.60;;;10.13;;
5684;SDS011;2865;53.114;9.130;2023-04-09T10:58:00;16.10;;;9.97;;
5684;SDS011;2865;53.114;9.130;2023-04-09T11:00:25;17.20;;;11.10;;
5684;SDS011;2865;53.114;9.130;2023-04-09T11:03:05;13.70;;;11.03;;
5684;SDS011;2865;53.114;9.130;2023-04-09T11:05:33;12.00;;;9.60;;
5684;SDS011;2865;53.114;9.130;2023-04-09T11:08:02;13.40;;;10.37;;
5684;SDS011;2865;53.114;9.130;2023-04-09T11:10:28;13.63;;;9.37;;
5684;SDS011;2865;53.114;9.130;2023-04-09T11:12:53;15.83;;;11.70;;
5684;SDS011;2865;53.114;9.130;2023-04-09T11:15:19;13.50;;;10.73;;
5684;SDS011;2865;53.114;9.130;2023-04-09T11:17:45;14.40;;;10.77;;
5684;SDS011;2865;53.114;9.130;2023-04-09T11:20:11;14.10;;;10.33;;
5684;SDS011;2865;53.114;9.130;2023-04-09T11:22:36;12.70;;;10.03;;
5684;SDS011;2865;53.114;9.130;2023-04-09T11:25:01;12.80;;;10.07;;
5684;SDS011;2865;53.114;9.130;2023-04-09T11:27:27;11.20;;;8.60;;
5684;SDS011;2865;53.114;9.130;2023-04-09T11:29:54;15.70;;;10.33;;
5684;SDS011;2865;53.114;9.130;2023-04-09T11:32:19;13.47;;;10.33;;
5684;SDS011;2865;53.114;9.130;2023-04-09T11:34:45;15.03;;;11.40;;
5684;SDS011;2865;53.114;9.130;2023-04-09T11:37:14;12.87;;;10.10;;
5684;SDS011;2865;53.114;9.130;2023-04-09T11:39:39;12.53;;;8.70;;
5684;SDS011;2865;53.114;9.130;2023-04-09T11:42:04;12.70;;;8.87;;
5684;SDS011;2865;53.114;9.130;2023-04-09T11:44:29;11.03;;;8.60;;
5684;SDS011;2865;53.114;9.130;2023-04-09T11:46:56;12.23;;;9.87;;
5684;SDS011;2865;53.114;9.130;2023-04-09T11:49:21;12.67;;;9.00;;
5684;SDS011;2865;53.114;9.130;2023-04-09T11:51:46;12.00;;;8.07;;
5684;SDS011;2865;53.114;9.130;2023-04-09T11:54:11;11.47;;;8.83;;
5684;SDS011;2865;53.114;9.130;2023-04-09T11:56:37;12.73;;;9.90;;
5684;SDS011;2865;53.114;9.130;2023-04-09T11:59:02;14.33;;;10.73;;
5684;SDS011;2865;53.114;9.130;2023-04-09T12:01:31;20.17;;;10.60;;
5684;SDS011;2865;53.114;9.130;2023-04-09T12:03:56;14.27;;;10.07;;
5684;SDS011;2865;53.114;9.130;2023-04-09T12:06:22;13.17;;;9.93;;
5684;SDS011;2865;53.114;9.130;2023-04-09T12:08:51;15.50;;;10.77;;
5684;SDS011;2865;53.114;9.130;2023-04-09T12:11:14;15.23;;;10.20;;
5684;SDS011;2865;53.114;9.130;2023-04-09T12:13:38;15.37;;;11.00;;
5684;SDS011;2865;53.114;9.130;2023-04-09T12:16:05;11.77;;;9.40;;
5684;SDS011;2865;53.114;9.130;2023-04-09T12:18:31;13.63;;;9.70;;
5684;SDS011;2865;53.114;9.130;2023-04-09T12:20:56;14.47;;;9.57;;
5684;SDS011;2865;53.114;9.130;2023-04-09T12:23:22;13.27;;;10.80;;
5684;SDS011;2865;53.114;9.130;2023-04-09T12:25:49;13.00;;;10.10;;
5684;SDS011;2865;53.114;9.130;2023-04-09T12:28:14;12.20;;;9.07;;
5684;SDS011;2865;53.114;9.130;2023-04-09T12:30:39;14.97;;;9.70;;
5684;SDS011;2865;53.114;9.130;2023-04-09T12:33:05;12.97;;;10.10;;
5684;SDS011;2865;53.114;9.130;2023-04-09T12:35:30;14.67;;;11.03;;
5684;SDS011;2865;53.114;9.130;2023-04-09T12:37:56;12.00;;;9.70;;
5684;SDS011;2865;53.114;9.130;2023-04-09T12:40:21;11.80;;;9.07;;
5684;SDS011;2865;53.114;9.130;2023-04-09T12:42:47;12.97;;;9.80;;
5684;SDS011;2865;53.114;9.130;2023-04-09T12:45:13;11.67;;;9.40;;
5684;SDS011;2865;53.114;9.130;2023-04-09T12:47:38;12.13;;;9.57;;
5684;SDS011;2865;53.114;9.130;2023-04-09T12:50:05;14.30;;;9.53;;
5684;SDS011;2865;53.114;9.130;2023-04-09T12:52:31;13.13;;;10.60;;
5684;SDS011;2865;53.114;9.130;2023-04-09T12:54:57;13.27;;;10.10;;
5684;SDS011;2865;53.114;9.130;2023-04-09T12:57:22;16.07;;;10.90;;
5684;SDS011;2865;53.114;9.130;2023-04-09T12:59:47;13.20;;;9.80;;
5684;SDS011;2865;53.114;9.130;2023-04-09T13:02:13;15.33;;;10.40;;
5684;SDS011;2865;53.114;9.130;2023-04-09T13:04:38;12.70;;;9.93;;
5684;SDS011;2865;53.114;9.130;2023-04-09T13:07:04;13.63;;;10.40;;
5684;SDS011;2865;53.114;9.130;2023-04-09T13:09:29;10.80;;;8.93;;
5684;SDS011;2865;53.114;9.130;2023-04-09T13:11:55;10.90;;;7.80;;
5684;SDS011;2865;53.114;9.130;2023-04-09T13:14:20;10.37;;;8.50;;
5684;SDS011;2865;53.114;9.130;2023-04-09T13:16:45;10.93;;;8.13;;
5684;SDS011;2865;53.114;9.130;2023-04-09T13:19:11;13.00;;;9.43;;
5684;SDS011;2865;53.114;9.130;2023-04-09T13:21:37;12.20;;;9.00;;
5684;SDS011;2865;53.114;9.130;2023-04-09T13:24:02;10.70;;;8.50;;
5684;SDS011;2865;53.114;9.130;2023-04-09T13:26:27;12.57;;;9.70;;
5684;SDS011;2865;53.114;9.130;2023-04-09T13:28:53;18.43;;;10.20;;
5684;SDS011;2865;53.114;9.130;2023-04-09T13:31:18;10.87;;;7.73;;
5684;SDS011;2865;53.114;9.130;2023-04-09T13:33:44;10.80;;;8.30;;
5684;SDS011;2865;53.114;9.130;2023-04-09T13:36:09;11.97;;;8.60;;
5684;SDS011;2865;53.114;9.130;2023-04-09T13:38:35;12.77;;;9.20;;
5684;SDS011;2865;53.114;9.130;2023-04-09T13:41:00;11.70;;;8.60;;
5684;SDS011;2865;53.114;9.130;2023-04-09T13:43:26;11.77;;;8.30;;
5684;SDS011;2865;53.114;9.130;2023-04-09T13:45:52;12.03;;;8.77;;
5684;SDS011;2865;53.114;9.130;2023-04-09T13:48:17;12.50;;;9.17;;
5684;SDS011;2865;53.114;9.130;2023-04-09T13:50:42;10.03;;;8.63;;
5684;SDS011;2865;53.114;9.130;2023-04-09T13:53:08;11.93;;;9.13;;
5684;SDS011;2865;53.114;9.130;2023-04-09T13:55:33;12.60;;;9.03;;
5684;SDS011;2865;53.114;9.130;2023-04-09T13:57:58;14.57;;;9.83;;
5684;SDS011;2865;53.114;9.130;2023-04-09T14:00:24;13.43;;;9.70;;
5684;SDS011;2865;53.114;9.130;2023-04-09T14:02:49;12.80;;;9.60;;
5684;SDS011;2865;53.114;9.130;2023-04-09T14:05:15;12.50;;;8.83;;
5684;SDS011;2865;53.114;9.130;2023-04-09T14:07:40;12.60;;;10.47;;
5684;SDS011;2865;53.114;9.130;2023-04-09T14:10:06;11.80;;;9.47;;
5684;SDS011;2865;53.114;9.130;2023-04-09T14:12:32;11.93;;;9.50;;
5684;SDS011;2865;53.114;9.130;2023-04-09T14:14:57;12.30;;;10.07;;
5684;SDS011;2865;53.114;9.130;2023-04-09T14:17:23;10.63;;;8.60;;
5684;SDS011;2865;53.114;9.130;2023-04-09T14:19:48;13.53;;;9.00;;
5684;SDS011;2865;53.114;9.130;2023-04-09T14:22:14;13.90;;;9.33;;
5684;SDS011;2865;53.114;9.130;2023-04-09T14:24:39;11.03;;;8.00;;
5684;SDS011;2865;53.114;9.130;2023-04-09T14:27:05;10.90;;;8.10;;
5684;SDS011;2865;53.114;9.130;2023-04-09T14:29:30;13.50;;;8.67;;
5684;SDS011;2865;53.114;9.130;2023-04-09T14:31:56;10.00;;;8.77;;
5684;SDS011;2865;53.114;9.130;2023-04-09T14:34:21;14.17;;;9.07;;
5684;SDS011;2865;53.114;9.130;2023-04-09T14:36:47;9.63;;;8.03;;
5684;SDS011;2865;53.114;9.130;2023-04-09T14:39:12;11.33;;;8.17;;
5684;SDS011;2865;53.114;9.130;2023-04-09T14:41:38;11.70;;;8.70;;
5684;SDS011;2865;53.114;9.130;2023-04-09T14:44:03;12.73;;;8.97;;